sensor_id;sensor_type;location;lat;lon;timestamp;P1;durP1;ratioP1;P2;durP2;ratioP2
83761;SDS011;73752;49.594;8.734;2023-12-22T00:00:17;2.55;;;0.98;;
83761;SDS011;73752;49.594;8.734;2023-12-22T00:02:42;4.68;;;0.60;;
83761;SDS011;73752;49.594;8.734;2023-12-22T00:05:08;2.90;;;0.70;;
83761;SDS011;73752;49.594;8.734;2023-12-22T00:07:33;2.55;;;0.68;;
83761;SDS011;73752;49.594;8.734;2023-12-22T00:09:58;0.77;;;0.47;;
83761;SDS011;73752;49.594;8.734;2023-12-22T00:12:24;9.85;;;0.73;;
83761;SDS011;73752;49.594;8.734;2023-12-22T00:14:49;3.08;;;0.50;;
83761;SDS011;73752;49.594;8.734;2023-12-22T00:17:14;6.00;;;0.70;;
83761;SDS011;73752;49.594;8.734;2023-12-22T00:19:39;1.67;;;0.60;;
83761;SDS011;73752;49.594;8.734;2023-12-22T00:22:05;1.63;;;0.50;;
83761;SDS011;73752;49.594;8.734;2023-12-22T00:24:31;4.18;;;0.80;;
83761;SDS011;73752;49.594;8.734;2023-12-22T00:26:56;0.40;;;0.40;;
83761;SDS011;73752;49.594;8.734;2023-12-22T00:29:21;1.00;;;0.50;;
83761;SDS011;73752;49.594;8.734;2023-12-22T00:31:47;1.27;;;0.50;;
83761;SDS011;73752;49.594;8.734;2023-12-22T00:34:12;0.70;;;0.50;;
83761;SDS011;73752;49.594;8.734;2023-12-22T00:36:37;2.13;;;0.50;;
83761;SDS011;73752;49.594;8.734;2023-12-22T00:39:03;0.43;;;0.40;;
83761;SDS011;73752;49.594;8.734;2023-12-22T00:41:29;1.92;;;0.50;;
83761;SDS011;73752;49.594;8.734;2023-12-22T00:43:54;1.60;;;0.43;;
83761;SDS011;73752;49.594;8.734;2023-12-22T00:46:19;0.75;;;0.40;;
83761;SDS011;73752;49.594;8.734;2023-12-22T00:48:45;0.80;;;0.40;;
83761;SDS011;73752;49.594;8.734;2023-12-22T00:51:10;0.60;;;0.30;;
83761;SDS011;73752;49.594;8.734;2023-12-22T00:53:36;1.33;;;0.43;;
83761;SDS011;73752;49.594;8.734;2023-12-22T00:56:01;0.82;;;0.50;;
83761;SDS011;73752;49.594;8.734;2023-12-22T00:58:28;1.23;;;0.57;;
83761;SDS011;73752;49.594;8.734;2023-12-22T01:00:54;0.30;;;0.30;;
83761;SDS011;73752;49.594;8.734;2023-12-22T01:03:19;0.40;;;0.40;;
83761;SDS011;73752;49.594;8.734;2023-12-22T01:05:44;2.05;;;0.50;;
83761;SDS011;73752;49.594;8.734;2023-12-22T01:08:10;0.63;;;0.45;;
83761;SDS011;73752;49.594;8.734;2023-12-22T01:10:35;0.75;;;0.50;;
83761;SDS011;73752;49.594;8.734;2023-12-22T01:13:00;0.70;;;0.70;;
83761;SDS011;73752;49.594;8.734;2023-12-22T01:15:26;1.35;;;0.70;;
83761;SDS011;73752;49.594;8.734;2023-12-22T01:17:51;0.98;;;0.52;;
83761;SDS011;73752;49.594;8.734;2023-12-22T01:20:17;3.80;;;0.70;;
83761;SDS011;73752;49.594;8.734;2023-12-22T01:22:42;2.90;;;0.70;;
83761;SDS011;73752;49.594;8.734;2023-12-22T01:25:08;0.98;;;0.60;;
83761;SDS011;73752;49.594;8.734;2023-12-22T01:27:33;3.35;;;0.55;;
83761;SDS011;73752;49.594;8.734;2023-12-22T01:29:58;0.95;;;0.68;;
83761;SDS011;73752;49.594;8.734;2023-12-22T01:32:24;2.10;;;0.90;;
83761;SDS011;73752;49.594;8.734;2023-12-22T01:34:49;1.13;;;0.80;;
83761;SDS011;73752;49.594;8.734;2023-12-22T01:37:14;5.60;;;1.25;;
83761;SDS011;73752;49.594;8.734;2023-12-22T01:39:40;1.73;;;0.90;;
83761;SDS011;73752;49.594;8.734;2023-12-22T01:42:05;0.73;;;0.70;;
83761;SDS011;73752;49.594;8.734;2023-12-22T01:44:30;5.15;;;1.05;;
83761;SDS011;73752;49.594;8.734;2023-12-22T01:46:56;8.88;;;1.90;;
83761;SDS011;73752;49.594;8.734;2023-12-22T01:49:21;1.65;;;0.70;;
83761;SDS011;73752;49.594;8.734;2023-12-22T01:51:47;3.75;;;0.93;;
83761;SDS011;73752;49.594;8.734;2023-12-22T01:54:14;2.03;;;0.70;;
83761;SDS011;73752;49.594;8.734;2023-12-22T01:56:43;1.23;;;0.63;;
83761;SDS011;73752;49.594;8.734;2023-12-22T01:59:10;1.83;;;0.70;;
83761;SDS011;73752;49.594;8.734;2023-12-22T02:01:36;1.95;;;0.70;;
83761;SDS011;73752;49.594;8.734;2023-12-22T02:04:02;2.20;;;0.88;;
83761;SDS011;73752;49.594;8.734;2023-12-22T02:06:29;1.50;;;0.80;;
83761;SDS011;73752;49.594;8.734;2023-12-22T02:08:55;1.50;;;0.93;;
83761;SDS011;73752;49.594;8.734;2023-12-22T02:11:23;0.88;;;0.68;;
83761;SDS011;73752;49.594;8.734;2023-12-22T02:13:50;5.32;;;0.80;;
83761;SDS011;73752;49.594;8.734;2023-12-22T02:18:55;3.40;;;0.93;;
83761;SDS011;73752;49.594;8.734;2023-12-22T02:21:24;2.25;;;0.80;;
83761;SDS011;73752;49.594;8.734;2023-12-22T02:23:50;4.25;;;1.27;;
83761;SDS011;73752;49.594;8.734;2023-12-22T02:26:27;3.80;;;1.38;;
83761;SDS011;73752;49.594;8.734;2023-12-22T02:29:00;2.05;;;0.85;;
83761;SDS011;73752;49.594;8.734;2023-12-22T02:31:37;3.60;;;0.80;;
83761;SDS011;73752;49.594;8.734;2023-12-22T02:34:13;4.15;;;1.45;;
83761;SDS011;73752;49.594;8.734;2023-12-22T02:36:44;4.97;;;1.73;;
83761;SDS011;73752;49.594;8.734;2023-12-22T02:39:13;4.80;;;1.90;;
83761;SDS011;73752;49.594;8.734;2023-12-22T02:41:41;9.05;;;2.92;;
83761;SDS011;73752;49.594;8.734;2023-12-22T02:44:09;6.88;;;2.30;;
83761;SDS011;73752;49.594;8.734;2023-12-22T02:46:35;5.80;;;2.70;;
83761;SDS011;73752;49.594;8.734;2023-12-22T02:49:02;10.75;;;3.85;;
83761;SDS011;73752;49.594;8.734;2023-12-22T02:51:29;4.22;;;3.10;;
83761;SDS011;73752;49.594;8.734;2023-12-22T02:53:55;8.90;;;3.88;;
83761;SDS011;73752;49.594;8.734;2023-12-22T02:56:22;6.35;;;3.80;;
83761;SDS011;73752;49.594;8.734;2023-12-22T02:58:48;8.40;;;4.00;;
83761;SDS011;73752;49.594;8.734;2023-12-22T03:01:15;7.57;;;3.92;;
83761;SDS011;73752;49.594;8.734;2023-12-22T03:03:41;10.98;;;3.90;;
83761;SDS011;73752;49.594;8.734;2023-12-22T03:06:07;11.05;;;4.35;;
83761;SDS011;73752;49.594;8.734;2023-12-22T03:08:38;8.95;;;4.10;;
83761;SDS011;73752;49.594;8.734;2023-12-22T03:11:05;7.63;;;4.07;;
83761;SDS011;73752;49.594;8.734;2023-12-22T03:13:31;7.03;;;3.60;;
83761;SDS011;73752;49.594;8.734;2023-12-22T03:15:58;8.98;;;4.30;;
83761;SDS011;73752;49.594;8.734;2023-12-22T03:18:24;8.77;;;4.97;;
83761;SDS011;73752;49.594;8.734;2023-12-22T03:20:50;11.68;;;4.70;;
83761;SDS011;73752;49.594;8.734;2023-12-22T03:23:17;8.38;;;4.70;;
83761;SDS011;73752;49.594;8.734;2023-12-22T03:25:42;7.25;;;4.07;;
83761;SDS011;73752;49.594;8.734;2023-12-22T03:28:08;10.48;;;3.78;;
83761;SDS011;73752;49.594;8.734;2023-12-22T03:30:35;9.07;;;3.55;;
83761;SDS011;73752;49.594;8.734;2023-12-22T03:33:03;11.27;;;2.83;;
83761;SDS011;73752;49.594;8.734;2023-12-22T03:35:29;8.68;;;2.67;;
83761;SDS011;73752;49.594;8.734;2023-12-22T03:37:59;7.82;;;2.20;;
83761;SDS011;73752;49.594;8.734;2023-12-22T03:40:25;8.07;;;1.90;;
83761;SDS011;73752;49.594;8.734;2023-12-22T03:42:51;14.05;;;2.60;;
83761;SDS011;73752;49.594;8.734;2023-12-22T03:45:18;5.63;;;1.40;;
83761;SDS011;73752;49.594;8.734;2023-12-22T03:47:44;7.07;;;2.13;;
83761;SDS011;73752;49.594;8.734;2023-12-22T03:50:10;8.77;;;1.73;;
83761;SDS011;73752;49.594;8.734;2023-12-22T03:52:36;7.47;;;1.60;;
83761;SDS011;73752;49.594;8.734;2023-12-22T03:55:03;7.05;;;2.08;;
83761;SDS011;73752;49.594;8.734;2023-12-22T03:57:30;10.75;;;2.05;;
83761;SDS011;73752;49.594;8.734;2023-12-22T03:59:56;6.82;;;1.95;;
83761;SDS011;73752;49.594;8.734;2023-12-22T04:02:22;12.73;;;2.00;;
83761;SDS011;73752;49.594;8.734;2023-12-22T04:04:47;6.82;;;1.73;;
83761;SDS011;73752;49.594;8.734;2023-12-22T04:07:12;10.10;;;2.00;;
83761;SDS011;73752;49.594;8.734;2023-12-22T04:09:38;6.38;;;1.40;;
83761;SDS011;73752;49.594;8.734;2023-12-22T04:12:06;8.18;;;1.90;;
83761;SDS011;73752;49.594;8.734;2023-12-22T04:14:31;7.60;;;1.80;;
83761;SDS011;73752;49.594;8.734;2023-12-22T04:16:57;7.68;;;1.50;;
83761;SDS011;73752;49.594;8.734;2023-12-22T04:19:22;8.23;;;1.25;;
83761;SDS011;73752;49.594;8.734;2023-12-22T04:21:47;5.53;;;1.30;;
83761;SDS011;73752;49.594;8.734;2023-12-22T04:24:13;7.13;;;1.48;;
83761;SDS011;73752;49.594;8.734;2023-12-22T04:26:38;7.57;;;1.20;;
83761;SDS011;73752;49.594;8.734;2023-12-22T04:29:03;9.65;;;1.75;;
83761;SDS011;73752;49.594;8.734;2023-12-22T04:31:29;6.80;;;1.63;;
83761;SDS011;73752;49.594;8.734;2023-12-22T04:33:54;10.02;;;1.48;;
83761;SDS011;73752;49.594;8.734;2023-12-22T04:36:20;5.10;;;1.80;;
83761;SDS011;73752;49.594;8.734;2023-12-22T04:38:46;7.57;;;1.33;;
83761;SDS011;73752;49.594;8.734;2023-12-22T04:41:11;9.52;;;1.45;;
83761;SDS011;73752;49.594;8.734;2023-12-22T04:43:36;7.90;;;1.83;;
83761;SDS011;73752;49.594;8.734;2023-12-22T04:46:01;6.82;;;1.60;;
83761;SDS011;73752;49.594;8.734;2023-12-22T04:48:27;6.32;;;1.63;;
83761;SDS011;73752;49.594;8.734;2023-12-22T04:50:52;9.77;;;2.28;;
83761;SDS011;73752;49.594;8.734;2023-12-22T04:53:18;8.38;;;1.77;;
83761;SDS011;73752;49.594;8.734;2023-12-22T04:55:45;8.20;;;1.75;;
83761;SDS011;73752;49.594;8.734;2023-12-22T04:58:11;5.38;;;1.40;;
83761;SDS011;73752;49.594;8.734;2023-12-22T05:00:38;6.38;;;1.50;;
83761;SDS011;73752;49.594;8.734;2023-12-22T05:03:05;4.82;;;1.30;;
83761;SDS011;73752;49.594;8.734;2023-12-22T05:05:31;8.45;;;1.60;;
83761;SDS011;73752;49.594;8.734;2023-12-22T05:07:58;12.55;;;1.60;;
83761;SDS011;73752;49.594;8.734;2023-12-22T05:10:25;6.85;;;1.63;;
83761;SDS011;73752;49.594;8.734;2023-12-22T05:12:51;11.77;;;1.70;;
83761;SDS011;73752;49.594;8.734;2023-12-22T05:15:18;10.07;;;1.95;;
83761;SDS011;73752;49.594;8.734;2023-12-22T05:17:45;7.55;;;1.63;;
83761;SDS011;73752;49.594;8.734;2023-12-22T05:20:11;7.88;;;1.63;;
83761;SDS011;73752;49.594;8.734;2023-12-22T05:22:40;6.35;;;1.48;;
83761;SDS011;73752;49.594;8.734;2023-12-22T05:25:06;13.68;;;2.38;;
83761;SDS011;73752;49.594;8.734;2023-12-22T05:27:35;11.77;;;2.08;;
83761;SDS011;73752;49.594;8.734;2023-12-22T05:33:24;17.85;;;1.95;;
83761;SDS011;73752;49.594;8.734;2023-12-22T05:35:51;11.38;;;1.88;;
83761;SDS011;73752;49.594;8.734;2023-12-22T05:38:18;8.63;;;1.90;;
83761;SDS011;73752;49.594;8.734;2023-12-22T05:40:44;15.95;;;1.95;;
83761;SDS011;73752;49.594;8.734;2023-12-22T05:43:11;7.78;;;1.55;;
83761;SDS011;73752;49.594;8.734;2023-12-22T05:45:39;8.13;;;1.80;;
83761;SDS011;73752;49.594;8.734;2023-12-22T05:48:09;8.18;;;1.52;;
83761;SDS011;73752;49.594;8.734;2023-12-22T05:56:33;8.88;;;2.90;;
83761;SDS011;73752;49.594;8.734;2023-12-22T05:59:00;9.75;;;1.77;;
83761;SDS011;73752;49.594;8.734;2023-12-22T06:01:29;12.25;;;2.30;;
83761;SDS011;73752;49.594;8.734;2023-12-22T06:03:56;5.55;;;1.60;;
83761;SDS011;73752;49.594;8.734;2023-12-22T06:06:22;10.02;;;1.90;;
83761;SDS011;73752;49.594;8.734;2023-12-22T06:08:49;12.88;;;1.92;;
83761;SDS011;73752;49.594;8.734;2023-12-22T06:11:16;9.98;;;2.25;;
83761;SDS011;73752;49.594;8.734;2023-12-22T06:13:42;14.13;;;2.90;;
83761;SDS011;73752;49.594;8.734;2023-12-22T06:16:12;10.52;;;2.40;;
83761;SDS011;73752;49.594;8.734;2023-12-22T06:18:40;10.48;;;2.00;;
83761;SDS011;73752;49.594;8.734;2023-12-22T06:21:08;10.68;;;2.67;;
83761;SDS011;73752;49.594;8.734;2023-12-22T06:23:35;11.98;;;2.70;;
83761;SDS011;73752;49.594;8.734;2023-12-22T06:26:07;10.10;;;2.00;;
83761;SDS011;73752;49.594;8.734;2023-12-22T06:28:35;7.72;;;1.88;;
83761;SDS011;73752;49.594;8.734;2023-12-22T06:31:03;10.82;;;2.20;;
83761;SDS011;73752;49.594;8.734;2023-12-22T06:33:30;8.20;;;2.28;;
83761;SDS011;73752;49.594;8.734;2023-12-22T06:35:57;13.27;;;2.17;;
83761;SDS011;73752;49.594;8.734;2023-12-22T06:38:24;10.43;;;2.45;;
83761;SDS011;73752;49.594;8.734;2023-12-22T06:40:50;13.50;;;2.47;;
83761;SDS011;73752;49.594;8.734;2023-12-22T06:43:17;11.07;;;2.05;;
83761;SDS011;73752;49.594;8.734;2023-12-22T06:45:44;11.23;;;2.60;;
83761;SDS011;73752;49.594;8.734;2023-12-22T06:48:10;10.02;;;2.40;;
83761;SDS011;73752;49.594;8.734;2023-12-22T06:50:36;16.00;;;2.90;;
83761;SDS011;73752;49.594;8.734;2023-12-22T06:53:04;14.88;;;2.72;;
83761;SDS011;73752;49.594;8.734;2023-12-22T06:55:31;9.27;;;2.13;;
83761;SDS011;73752;49.594;8.734;2023-12-22T06:57:57;8.55;;;2.25;;
83761;SDS011;73752;49.594;8.734;2023-12-22T07:00:23;14.50;;;2.60;;
83761;SDS011;73752;49.594;8.734;2023-12-22T07:02:49;14.88;;;2.28;;
83761;SDS011;73752;49.594;8.734;2023-12-22T07:07:46;11.20;;;2.03;;
83761;SDS011;73752;49.594;8.734;2023-12-22T07:10:11;16.77;;;2.53;;
83761;SDS011;73752;49.594;8.734;2023-12-22T07:12:37;16.17;;;2.10;;
83761;SDS011;73752;49.594;8.734;2023-12-22T07:15:04;12.13;;;3.67;;
83761;SDS011;73752;49.594;8.734;2023-12-22T07:17:33;14.15;;;2.70;;
83761;SDS011;73752;49.594;8.734;2023-12-22T07:19:58;18.05;;;3.60;;
83761;SDS011;73752;49.594;8.734;2023-12-22T07:22:24;26.15;;;3.70;;
83761;SDS011;73752;49.594;8.734;2023-12-22T07:24:49;16.48;;;2.72;;
83761;SDS011;73752;49.594;8.734;2023-12-22T07:27:16;15.95;;;3.22;;
83761;SDS011;73752;49.594;8.734;2023-12-22T07:29:42;15.52;;;2.83;;
83761;SDS011;73752;49.594;8.734;2023-12-22T07:32:07;16.95;;;3.38;;
83761;SDS011;73752;49.594;8.734;2023-12-22T07:34:33;17.10;;;2.95;;
83761;SDS011;73752;49.594;8.734;2023-12-22T07:36:58;18.58;;;2.60;;
83761;SDS011;73752;49.594;8.734;2023-12-22T07:39:23;15.00;;;2.30;;
83761;SDS011;73752;49.594;8.734;2023-12-22T07:41:49;39.30;;;4.55;;
83761;SDS011;73752;49.594;8.734;2023-12-22T07:44:14;11.75;;;2.13;;
83761;SDS011;73752;49.594;8.734;2023-12-22T07:46:40;15.93;;;2.92;;
83761;SDS011;73752;49.594;8.734;2023-12-22T07:49:05;18.33;;;2.22;;
83761;SDS011;73752;49.594;8.734;2023-12-22T07:51:31;13.73;;;2.20;;
83761;SDS011;73752;49.594;8.734;2023-12-22T07:53:56;20.98;;;3.17;;
83761;SDS011;73752;49.594;8.734;2023-12-22T08:06:29;9.02;;;1.80;;
83761;SDS011;73752;49.594;8.734;2023-12-22T08:15:42;9.77;;;1.80;;
83761;SDS011;73752;49.594;8.734;2023-12-22T08:18:07;11.18;;;1.98;;
83761;SDS011;73752;49.594;8.734;2023-12-22T08:20:33;7.93;;;1.83;;
83761;SDS011;73752;49.594;8.734;2023-12-22T08:22:58;8.50;;;1.45;;
83761;SDS011;73752;49.594;8.734;2023-12-22T08:25:24;4.30;;;1.50;;
83761;SDS011;73752;49.594;8.734;2023-12-22T08:27:54;8.80;;;1.30;;
83761;SDS011;73752;49.594;8.734;2023-12-22T08:31:06;8.07;;;1.63;;
83761;SDS011;73752;49.594;8.734;2023-12-22T08:33:32;6.80;;;1.50;;
83761;SDS011;73752;49.594;8.734;2023-12-22T08:35:57;6.63;;;1.33;;
83761;SDS011;73752;49.594;8.734;2023-12-22T08:38:22;6.55;;;1.20;;
83761;SDS011;73752;49.594;8.734;2023-12-22T08:52:33;2.83;;;1.33;;
83761;SDS011;73752;49.594;8.734;2023-12-22T08:54:58;5.70;;;1.50;;
83761;SDS011;73752;49.594;8.734;2023-12-22T08:57:24;5.40;;;1.60;;
83761;SDS011;73752;49.594;8.734;2023-12-22T08:59:50;6.65;;;1.38;;
83761;SDS011;73752;49.594;8.734;2023-12-22T09:02:15;1.85;;;0.90;;
83761;SDS011;73752;49.594;8.734;2023-12-22T09:04:40;3.50;;;1.55;;
83761;SDS011;73752;49.594;8.734;2023-12-22T09:07:06;6.75;;;1.40;;
83761;SDS011;73752;49.594;8.734;2023-12-22T09:09:31;2.28;;;1.25;;
83761;SDS011;73752;49.594;8.734;2023-12-22T09:11:57;8.57;;;2.65;;
83761;SDS011;73752;49.594;8.734;2023-12-22T09:14:22;9.15;;;2.42;;
83761;SDS011;73752;49.594;8.734;2023-12-22T09:16:47;8.88;;;1.80;;
83761;SDS011;73752;49.594;8.734;2023-12-22T09:19:13;10.43;;;2.65;;
83761;SDS011;73752;49.594;8.734;2023-12-22T09:21:38;7.60;;;1.80;;
83761;SDS011;73752;49.594;8.734;2023-12-22T09:24:03;10.93;;;1.83;;
83761;SDS011;73752;49.594;8.734;2023-12-22T09:26:30;11.30;;;1.77;;
83761;SDS011;73752;49.594;8.734;2023-12-22T09:28:55;18.15;;;2.38;;
83761;SDS011;73752;49.594;8.734;2023-12-22T09:31:21;18.00;;;2.42;;
83761;SDS011;73752;49.594;8.734;2023-12-22T09:33:47;11.25;;;2.95;;
83761;SDS011;73752;49.594;8.734;2023-12-22T09:36:13;15.63;;;2.60;;
83761;SDS011;73752;49.594;8.734;2023-12-22T09:38:39;12.48;;;3.15;;
83761;SDS011;73752;49.594;8.734;2023-12-22T09:41:04;16.70;;;2.60;;
83761;SDS011;73752;49.594;8.734;2023-12-22T09:43:30;17.63;;;4.05;;
83761;SDS011;73752;49.594;8.734;2023-12-22T09:45:59;17.55;;;3.13;;
83761;SDS011;73752;49.594;8.734;2023-12-22T09:48:26;25.00;;;3.90;;
83761;SDS011;73752;49.594;8.734;2023-12-22T09:50:53;19.88;;;3.28;;
83761;SDS011;73752;49.594;8.734;2023-12-22T09:53:20;19.20;;;3.10;;
83761;SDS011;73752;49.594;8.734;2023-12-22T09:55:46;21.58;;;3.72;;
83761;SDS011;73752;49.594;8.734;2023-12-22T09:58:12;21.63;;;3.92;;
83761;SDS011;73752;49.594;8.734;2023-12-22T10:00:39;15.60;;;3.55;;
83761;SDS011;73752;49.594;8.734;2023-12-22T10:03:06;20.90;;;3.80;;
83761;SDS011;73752;49.594;8.734;2023-12-22T10:05:32;23.90;;;3.95;;
83761;SDS011;73752;49.594;8.734;2023-12-22T10:07:58;21.02;;;3.35;;
83761;SDS011;73752;49.594;8.734;2023-12-22T10:10:25;23.85;;;4.43;;
83761;SDS011;73752;49.594;8.734;2023-12-22T10:12:54;14.55;;;3.40;;
83761;SDS011;73752;49.594;8.734;2023-12-22T10:15:19;31.02;;;3.95;;
83761;SDS011;73752;49.594;8.734;2023-12-22T10:17:49;27.60;;;3.90;;
83761;SDS011;73752;49.594;8.734;2023-12-22T10:20:15;23.02;;;3.55;;
83761;SDS011;73752;49.594;8.734;2023-12-22T10:22:41;26.63;;;4.25;;
83761;SDS011;73752;49.594;8.734;2023-12-22T10:25:06;22.67;;;4.50;;
83761;SDS011;73752;49.594;8.734;2023-12-22T10:27:33;26.83;;;3.85;;
83761;SDS011;73752;49.594;8.734;2023-12-22T10:30:01;27.83;;;4.15;;
83761;SDS011;73752;49.594;8.734;2023-12-22T10:32:28;28.42;;;4.07;;
83761;SDS011;73752;49.594;8.734;2023-12-22T10:34:55;29.27;;;4.70;;
83761;SDS011;73752;49.594;8.734;2023-12-22T10:37:22;20.35;;;3.85;;
83761;SDS011;73752;49.594;8.734;2023-12-22T10:39:48;20.08;;;4.03;;
83761;SDS011;73752;49.594;8.734;2023-12-22T10:42:20;38.47;;;6.60;;
83761;SDS011;73752;49.594;8.734;2023-12-22T10:44:45;24.67;;;4.55;;
83761;SDS011;73752;49.594;8.734;2023-12-22T10:47:11;24.23;;;4.68;;
83761;SDS011;73752;49.594;8.734;2023-12-22T10:49:37;25.13;;;4.25;;
83761;SDS011;73752;49.594;8.734;2023-12-22T10:52:02;25.10;;;4.43;;
83761;SDS011;73752;49.594;8.734;2023-12-22T10:54:28;31.38;;;4.75;;
83761;SDS011;73752;49.594;8.734;2023-12-22T10:56:58;26.13;;;4.07;;
83761;SDS011;73752;49.594;8.734;2023-12-22T10:59:30;32.83;;;4.72;;
83761;SDS011;73752;49.594;8.734;2023-12-22T11:01:58;24.88;;;4.22;;
83761;SDS011;73752;49.594;8.734;2023-12-22T11:04:29;36.55;;;5.40;;
83761;SDS011;73752;49.594;8.734;2023-12-22T11:06:59;35.35;;;5.53;;
83761;SDS011;73752;49.594;8.734;2023-12-22T11:09:28;24.27;;;4.82;;
83761;SDS011;73752;49.594;8.734;2023-12-22T11:11:56;32.17;;;4.75;;
83761;SDS011;73752;49.594;8.734;2023-12-22T11:14:22;32.47;;;5.53;;
83761;SDS011;73752;49.594;8.734;2023-12-22T11:16:49;24.67;;;4.75;;
83761;SDS011;73752;49.594;8.734;2023-12-22T11:19:16;31.52;;;4.72;;
83761;SDS011;73752;49.594;8.734;2023-12-22T11:21:43;28.33;;;5.13;;
83761;SDS011;73752;49.594;8.734;2023-12-22T11:24:11;30.80;;;4.32;;
83761;SDS011;73752;49.594;8.734;2023-12-22T11:26:40;24.05;;;3.63;;
83761;SDS011;73752;49.594;8.734;2023-12-22T11:29:07;30.80;;;5.13;;
83761;SDS011;73752;49.594;8.734;2023-12-22T11:31:34;23.77;;;4.68;;
83761;SDS011;73752;49.594;8.734;2023-12-22T11:34:01;24.80;;;4.50;;
83761;SDS011;73752;49.594;8.734;2023-12-22T11:36:27;23.30;;;4.00;;
83761;SDS011;73752;49.594;8.734;2023-12-22T11:38:56;22.58;;;3.92;;
83761;SDS011;73752;49.594;8.734;2023-12-22T11:41:22;32.97;;;3.90;;
83761;SDS011;73752;49.594;8.734;2023-12-22T11:43:51;24.83;;;4.40;;
83761;SDS011;73752;49.594;8.734;2023-12-22T11:46:17;27.75;;;4.32;;
83761;SDS011;73752;49.594;8.734;2023-12-22T11:48:49;21.60;;;3.78;;
83761;SDS011;73752;49.594;8.734;2023-12-22T11:51:16;20.98;;;4.07;;
83761;SDS011;73752;49.594;8.734;2023-12-22T11:53:43;33.70;;;4.22;;
83761;SDS011;73752;49.594;8.734;2023-12-22T11:56:09;29.45;;;4.38;;
83761;SDS011;73752;49.594;8.734;2023-12-22T12:01:02;26.08;;;3.53;;
83761;SDS011;73752;49.594;8.734;2023-12-22T12:03:30;21.02;;;3.95;;
83761;SDS011;73752;49.594;8.734;2023-12-22T12:06:15;19.25;;;3.97;;
83761;SDS011;73752;49.594;8.734;2023-12-22T12:08:43;22.42;;;3.75;;
83761;SDS011;73752;49.594;8.734;2023-12-22T12:11:09;23.45;;;4.00;;
83761;SDS011;73752;49.594;8.734;2023-12-22T12:13:34;18.92;;;3.38;;
83761;SDS011;73752;49.594;8.734;2023-12-22T12:16:06;22.30;;;3.80;;
83761;SDS011;73752;49.594;8.734;2023-12-22T12:18:32;23.55;;;4.60;;
83761;SDS011;73752;49.594;8.734;2023-12-22T12:20:59;24.77;;;4.57;;
83761;SDS011;73752;49.594;8.734;2023-12-22T12:23:28;22.27;;;3.75;;
83761;SDS011;73752;49.594;8.734;2023-12-22T12:25:54;18.13;;;3.42;;
83761;SDS011;73752;49.594;8.734;2023-12-22T12:28:26;21.05;;;3.70;;
83761;SDS011;73752;49.594;8.734;2023-12-22T12:30:58;16.38;;;4.35;;
83761;SDS011;73752;49.594;8.734;2023-12-22T12:33:25;21.30;;;3.08;;
83761;SDS011;73752;49.594;8.734;2023-12-22T12:35:52;15.07;;;2.45;;
83761;SDS011;73752;49.594;8.734;2023-12-22T12:38:20;17.23;;;2.83;;
83761;SDS011;73752;49.594;8.734;2023-12-22T12:40:53;14.35;;;2.72;;
83761;SDS011;73752;49.594;8.734;2023-12-22T12:43:21;9.45;;;2.20;;
83761;SDS011;73752;49.594;8.734;2023-12-22T12:45:47;12.32;;;2.30;;
83761;SDS011;73752;49.594;8.734;2023-12-22T12:48:13;12.32;;;3.38;;
83761;SDS011;73752;49.594;8.734;2023-12-22T12:50:41;6.10;;;2.03;;
83761;SDS011;73752;49.594;8.734;2023-12-22T12:53:07;12.27;;;2.20;;
83761;SDS011;73752;49.594;8.734;2023-12-22T12:55:32;9.35;;;1.95;;
83761;SDS011;73752;49.594;8.734;2023-12-22T12:57:58;10.55;;;2.30;;
83761;SDS011;73752;49.594;8.734;2023-12-22T13:00:27;8.45;;;1.88;;
83761;SDS011;73752;49.594;8.734;2023-12-22T13:02:57;5.20;;;1.75;;
83761;SDS011;73752;49.594;8.734;2023-12-22T13:05:27;2.50;;;1.33;;
83761;SDS011;73752;49.594;8.734;2023-12-22T13:08:02;3.58;;;1.02;;
83761;SDS011;73752;49.594;8.734;2023-12-22T13:10:34;3.35;;;1.67;;
83761;SDS011;73752;49.594;8.734;2023-12-22T13:12:59;6.18;;;1.60;;
83761;SDS011;73752;49.594;8.734;2023-12-22T13:15:25;2.97;;;1.30;;
83761;SDS011;73752;49.594;8.734;2023-12-22T13:17:50;4.30;;;1.45;;
83761;SDS011;73752;49.594;8.734;2023-12-22T13:20:16;3.25;;;1.45;;
83761;SDS011;73752;49.594;8.734;2023-12-22T13:22:41;1.63;;;1.00;;
83761;SDS011;73752;49.594;8.734;2023-12-22T13:25:10;3.08;;;1.13;;
83761;SDS011;73752;49.594;8.734;2023-12-22T13:27:45;3.72;;;1.00;;
83761;SDS011;73752;49.594;8.734;2023-12-22T13:30:31;2.97;;;1.30;;
83761;SDS011;73752;49.594;8.734;2023-12-22T13:32:57;1.85;;;0.90;;
83761;SDS011;73752;49.594;8.734;2023-12-22T13:35:23;4.45;;;1.48;;
83761;SDS011;73752;49.594;8.734;2023-12-22T13:37:49;5.07;;;1.23;;
83761;SDS011;73752;49.594;8.734;2023-12-22T13:40:15;2.92;;;1.40;;
83761;SDS011;73752;49.594;8.734;2023-12-22T13:42:40;3.72;;;1.33;;
83761;SDS011;73752;49.594;8.734;2023-12-22T13:45:11;2.85;;;1.40;;
83761;SDS011;73752;49.594;8.734;2023-12-22T13:47:40;3.15;;;0.90;;
83761;SDS011;73752;49.594;8.734;2023-12-22T13:50:14;10.55;;;5.35;;
83761;SDS011;73752;49.594;8.734;2023-12-22T13:52:43;5.18;;;1.73;;
83761;SDS011;73752;49.594;8.734;2023-12-22T13:55:10;5.20;;;1.60;;
83761;SDS011;73752;49.594;8.734;2023-12-22T13:57:40;3.15;;;1.20;;
83761;SDS011;73752;49.594;8.734;2023-12-22T14:02:43;2.50;;;1.10;;
83761;SDS011;73752;49.594;8.734;2023-12-22T14:05:10;1.25;;;0.70;;
83761;SDS011;73752;49.594;8.734;2023-12-22T14:07:35;1.83;;;1.08;;
83761;SDS011;73752;49.594;8.734;2023-12-22T14:10:07;2.75;;;1.20;;
83761;SDS011;73752;49.594;8.734;2023-12-22T14:12:33;1.80;;;1.13;;
83761;SDS011;73752;49.594;8.734;2023-12-22T14:14:59;3.97;;;1.20;;
83761;SDS011;73752;49.594;8.734;2023-12-22T14:17:24;3.75;;;1.00;;
83761;SDS011;73752;49.594;8.734;2023-12-22T14:19:50;2.92;;;1.40;;
83761;SDS011;73752;49.594;8.734;2023-12-22T14:22:15;1.88;;;1.10;;
83761;SDS011;73752;49.594;8.734;2023-12-22T14:24:41;2.47;;;0.80;;
83761;SDS011;73752;49.594;8.734;2023-12-22T14:27:07;2.30;;;0.70;;
83761;SDS011;73752;49.594;8.734;2023-12-22T14:29:32;2.20;;;0.65;;
83761;SDS011;73752;49.594;8.734;2023-12-22T14:32:00;4.85;;;1.42;;
83761;SDS011;73752;49.594;8.734;2023-12-22T14:34:30;1.73;;;0.90;;
83761;SDS011;73752;49.594;8.734;2023-12-22T14:36:57;2.05;;;1.60;;
83761;SDS011;73752;49.594;8.734;2023-12-22T14:39:22;7.47;;;1.65;;
83761;SDS011;73752;49.594;8.734;2023-12-22T14:41:48;3.55;;;0.95;;
83761;SDS011;73752;49.594;8.734;2023-12-22T14:44:13;14.93;;;8.90;;
83761;SDS011;73752;49.594;8.734;2023-12-22T14:46:39;5.30;;;3.30;;
83761;SDS011;73752;49.594;8.734;2023-12-22T14:49:05;1.20;;;0.80;;
83761;SDS011;73752;49.594;8.734;2023-12-22T14:51:35;1.90;;;0.85;;
83761;SDS011;73752;49.594;8.734;2023-12-22T14:54:01;2.58;;;0.70;;
83761;SDS011;73752;49.594;8.734;2023-12-22T14:56:27;1.88;;;0.70;;
83761;SDS011;73752;49.594;8.734;2023-12-22T14:58:52;2.45;;;0.90;;
83761;SDS011;73752;49.594;8.734;2023-12-22T15:01:17;2.92;;;0.90;;
83761;SDS011;73752;49.594;8.734;2023-12-22T15:03:43;1.02;;;0.55;;
83761;SDS011;73752;49.594;8.734;2023-12-22T15:06:08;1.05;;;0.73;;
83761;SDS011;73752;49.594;8.734;2023-12-22T15:08:33;2.20;;;1.52;;
83761;SDS011;73752;49.594;8.734;2023-12-22T15:11:00;1.20;;;1.00;;
83761;SDS011;73752;49.594;8.734;2023-12-22T15:13:25;1.48;;;0.70;;
83761;SDS011;73752;49.594;8.734;2023-12-22T15:15:51;3.05;;;0.70;;
83761;SDS011;73752;49.594;8.734;2023-12-22T15:18:17;2.72;;;1.08;;
83761;SDS011;73752;49.594;8.734;2023-12-22T15:20:42;3.45;;;0.82;;
83761;SDS011;73752;49.594;8.734;2023-12-22T15:23:07;1.23;;;0.75;;
83761;SDS011;73752;49.594;8.734;2023-12-22T15:25:32;4.97;;;0.88;;
83761;SDS011;73752;49.594;8.734;2023-12-22T15:27:58;1.08;;;0.60;;